Time;durP1;ratioP1;P1;durP2;ratioP2;P2;SDS_P1;SDS_P2;PMS_P1;PMS_P2;Temp;Humidity;BMP_temperature;BMP_pressure;BME280_temperature;BME280_humidity;BME280_pressure;Samples;Min_cycle;Max_cycle;Signal;HPM_P1;HPM_P2
2024/02/16 00:00:28;;;;;;;4.38;1.70;;;14.60;98.40;;;;;;2067714;28;20057;-66
2024/02/16 00:01:28;;;;;;;2.65;1.08;;;14.60;98.50;;;;;;2067670;28;20041;-66
2024/02/16 00:02:29;;;;;;;1.90;1.13;;;14.60;98.50;;;;;;2068379;28;20386;-66
2024/02/16 00:03:29;;;;;;;5.68;1.50;;;14.60;98.50;;;;;;2066995;28;20052;-66
2024/02/16 00:04:30;;;;;;;3.45;1.30;;;14.60;98.40;;;;;;2069870;28;20037;-67
2024/02/16 00:05:31;;;;;;;2.97;1.45;;;14.60;98.40;;;;;;2067466;28;20062;-66
2024/02/16 00:06:32;;;;;;;3.80;1.30;;;14.60;98.30;;;;;;2068605;28;20041;-66
2024/02/16 00:07:33;;;;;;;2.17;1.20;;;14.60;98.10;;;;;;2066769;28;20030;-66
2024/02/16 00:08:34;;;;;;;3.72;1.27;;;14.60;98.20;;;;;;2066932;28;20068;-67
2024/02/16 00:09:35;;;;;;;1.70;1.20;;;14.60;98.30;;;;;;2065788;28;20034;-66
2024/02/16 00:10:35;;;;;;;1.63;1.25;;;14.60;98.30;;;;;;2069390;28;20030;-66
2024/02/16 00:11:37;;;;;;;2.55;1.13;;;14.60;98.30;;;;;;2067581;28;20049;-66
2024/02/16 00:12:39;;;;;;;3.50;1.23;;;14.60;98.30;;;;;;2068201;28;20063;-66
2024/02/16 00:13:40;;;;;;;3.22;1.30;;;14.60;98.30;;;;;;2068439;28;20109;-67
2024/02/16 00:14:40;;;;;;;3.42;1.40;;;14.60;98.20;;;;;;2066722;28;20030;-66
2024/02/16 00:15:41;;;;;;;2.53;1.10;;;14.60;98.20;;;;;;2068501;28;20050;-70
2024/02/16 00:16:41;;;;;;;2.75;1.27;;;14.60;98.30;;;;;;2071204;28;20081;-70
2024/02/16 00:17:42;;;;;;;3.47;1.27;;;14.60;98.20;;;;;;2075567;28;20029;-71
2024/02/16 00:18:43;;;;;;;1.80;1.48;;;14.60;98.20;;;;;;2066473;28;20060;-71
2024/02/16 00:19:43;;;;;;;2.47;1.17;;;14.60;98.20;;;;;;2059300;28;20035;-70
2024/02/16 00:20:44;;;;;;;3.75;1.20;;;14.50;98.20;;;;;;2069596;28;20415;-70
2024/02/16 00:21:44;;;;;;;2.08;1.25;;;14.50;98.20;;;;;;2075808;28;20513;-71
2024/02/16 00:22:45;;;;;;;2.85;1.40;;;14.60;98.20;;;;;;2074355;28;20030;-71
2024/02/16 00:23:46;;;;;;;2.42;1.35;;;14.50;98.10;;;;;;2075837;28;20437;-71
2024/02/16 00:24:47;;;;;;;2.47;1.42;;;14.50;98.10;;;;;;2073401;28;20065;-70
2024/02/16 00:25:48;;;;;;;3.65;1.33;;;14.60;98.10;;;;;;2076456;28;20037;-71
2024/02/16 00:26:49;;;;;;;5.00;1.38;;;14.60;98.00;;;;;;2077260;28;20087;-69
2024/02/16 00:27:52;;;;;;;3.42;1.20;;;14.60;98.00;;;;;;2077781;28;20037;-69
2024/02/16 00:28:53;;;;;;;3.67;1.38;;;14.50;97.90;;;;;;2076964;28;20040;-71
2024/02/16 00:29:54;;;;;;;3.20;1.40;;;14.50;98.00;;;;;;2076339;28;20033;-71
2024/02/16 00:30:54;;;;;;;2.90;1.40;;;14.50;98.00;;;;;;2077461;28;20033;-71
2024/02/16 00:31:55;;;;;;;3.53;1.50;;;14.50;97.90;;;;;;2074358;28;20026;-71
2024/02/16 00:32:56;;;;;;;2.42;1.52;;;14.50;97.90;;;;;;2075991;28;20038;-70
2024/02/16 00:33:56;;;;;;;1.40;1.10;;;14.50;97.90;;;;;;2077279;28;20034;-71
2024/02/16 00:34:57;;;;;;;2.28;1.45;;;14.50;98.00;;;;;;2076226;28;20038;-71
2024/02/16 00:35:58;;;;;;;1.20;1.10;;;14.50;98.20;;;;;;2075529;28;20550;-71
2024/02/16 00:36:58;;;;;;;3.17;1.20;;;14.50;97.90;;;;;;2076135;28;20401;-71
2024/02/16 00:38:00;;;;;;;2.05;1.30;;;14.50;98.00;;;;;;2073754;28;20140;-71
2024/02/16 00:39:00;;;;;;;2.38;1.40;;;14.50;98.10;;;;;;2075747;28;20026;-71
2024/02/16 00:40:01;;;;;;;3.72;1.40;;;14.50;98.20;;;;;;2074474;28;20029;-71
2024/02/16 00:41:01;;;;;;;2.83;1.38;;;14.50;98.10;;;;;;2076270;28;20018;-71
2024/02/16 00:42:03;;;;;;;2.85;1.35;;;14.50;98.00;;;;;;2076077;28;20037;-70
2024/02/16 00:43:03;;;;;;;2.05;1.20;;;14.50;98.00;;;;;;2076095;28;20125;-71
2024/02/16 00:44:04;;;;;;;1.98;1.17;;;14.50;98.10;;;;;;2076023;28;20505;-71
2024/02/16 00:45:05;;;;;;;1.85;1.13;;;14.50;98.20;;;;;;2075394;28;20038;-71
2024/02/16 00:46:05;;;;;;;3.17;1.50;;;14.50;98.20;;;;;;2074798;28;20387;-70
2024/02/16 00:47:06;;;;;;;2.47;1.60;;;14.50;98.10;;;;;;2075874;28;20026;-71
2024/02/16 00:48:07;;;;;;;3.42;1.55;;;14.50;98.10;;;;;;2074406;28;20028;-71
2024/02/16 00:49:10;;;;;;;2.85;1.30;;;14.50;98.00;;;;;;2075975;28;20458;-71
2024/02/16 00:50:10;;;;;;;2.83;1.45;;;14.50;98.10;;;;;;2076526;28;20037;-71
2024/02/16 00:51:11;;;;;;;2.60;1.23;;;14.50;98.20;;;;;;2075088;28;20089;-71
2024/02/16 00:52:12;;;;;;;3.22;1.63;;;14.50;98.20;;;;;;2075897;28;20029;-69
2024/02/16 00:53:12;;;;;;;4.07;1.60;;;14.50;98.10;;;;;;2074377;28;20025;-71
2024/02/16 00:54:13;;;;;;;3.60;1.52;;;14.50;98.10;;;;;;2075414;28;20026;-71
2024/02/16 00:55:13;;;;;;;3.45;1.40;;;14.50;98.10;;;;;;2074542;28;20033;-70
2024/02/16 00:56:14;;;;;;;8.27;1.45;;;14.50;98.20;;;;;;2075752;28;20026;-71
2024/02/16 00:57:15;;;;;;;3.53;1.35;;;14.50;98.30;;;;;;2074737;28;20465;-71
2024/02/16 00:58:15;;;;;;;3.17;1.60;;;14.40;98.40;;;;;;2075854;28;20037;-71
2024/02/16 00:59:16;;;;;;;2.00;1.30;;;14.50;98.50;;;;;;2074751;28;20061;-71
2024/02/16 01:00:19;;;;;;;2.63;1.15;;;14.50;98.50;;;;;;2077882;28;20113;-71
2024/02/16 01:01:21;;;;;;;2.80;1.42;;;14.40;98.30;;;;;;2075692;28;20079;-71
2024/02/16 01:02:22;;;;;;;2.50;1.70;;;14.40;98.20;;;;;;2074472;28;20026;-71
2024/02/16 01:03:23;;;;;;;3.90;1.35;;;14.40;98.40;;;;;;2077090;28;20022;-72
2024/02/16 01:04:23;;;;;;;2.40;1.50;;;14.40;98.40;;;;;;2075122;28;20026;-71
2024/02/16 01:05:24;;;;;;;2.28;1.30;;;14.40;98.40;;;;;;2074677;28;20028;-71
2024/02/16 01:06:25;;;;;;;1.35;1.25;;;14.40;98.40;;;;;;2076295;28;20030;-71
2024/02/16 01:07:25;;;;;;;1.83;1.40;;;14.50;98.40;;;;;;2075221;28;20028;-71
2024/02/16 01:08:27;;;;;;;2.70;1.13;;;14.40;98.20;;;;;;2075198;28;20030;-71
2024/02/16 01:09:27;;;;;;;3.35;1.50;;;14.50;98.20;;;;;;2079297;28;20724;-71
2024/02/16 01:10:28;;;;;;;2.50;1.67;;;14.40;98.30;;;;;;2076010;28;20116;-71
2024/02/16 01:11:28;;;;;;;2.72;1.23;;;14.40;98.40;;;;;;2075911;28;20021;-69
2024/02/16 01:12:32;;;;;;;3.05;1.40;;;14.40;98.50;;;;;;2075037;28;20026;-71
2024/02/16 01:13:32;;;;;;;3.83;1.30;;;14.50;98.50;;;;;;2075360;28;20079;-71
2024/02/16 01:14:33;;;;;;;2.17;1.70;;;14.40;98.40;;;;;;2074361;28;20034;-70
2024/02/16 01:15:34;;;;;;;2.40;1.40;;;14.40;98.30;;;;;;2073110;28;21214;-71
2024/02/16 01:16:35;;;;;;;3.17;1.35;;;14.50;98.30;;;;;;2076820;28;20137;-71
2024/02/16 01:17:36;;;;;;;2.30;1.30;;;14.40;98.20;;;;;;2078871;28;20107;-71
2024/02/16 01:18:37;;;;;;;2.90;1.20;;;14.40;98.10;;;;;;2078695;28;20446;-71
2024/02/16 01:19:37;;;;;;;3.72;1.50;;;14.40;98.20;;;;;;2076053;28;20798;-71
2024/02/16 01:20:38;;;;;;;2.72;1.15;;;14.50;98.20;;;;;;2077196;28;20029;-71
2024/02/16 01:21:39;;;;;;;5.68;1.70;;;14.50;98.30;;;;;;2075106;28;20073;-71
2024/02/16 01:22:40;;;;;;;3.10;1.42;;;14.50;98.40;;;;;;2075891;28;20105;-71
2024/02/16 01:23:40;;;;;;;2.13;1.50;;;14.40;98.40;;;;;;2078248;28;20014;-71
2024/02/16 01:24:41;;;;;;;2.33;1.23;;;14.50;98.30;;;;;;2077786;28;20022;-71
2024/02/16 01:25:42;;;;;;;2.00;1.50;;;14.50;98.20;;;;;;2077637;28;20028;-66
2024/02/16 01:26:42;;;;;;;4.95;1.52;;;14.50;98.10;;;;;;2078413;28;20052;-66
2024/02/16 01:27:43;;;;;;;1.58;1.02;;;14.40;98.00;;;;;;2075975;28;20455;-66
2024/02/16 01:28:43;;;;;;;3.88;1.60;;;14.40;98.00;;;;;;2076270;28;20394;-67
2024/02/16 01:29:44;;;;;;;2.40;1.33;;;14.50;98.00;;;;;;2076458;28;20033;-66
2024/02/16 01:30:44;;;;;;;4.20;1.70;;;14.50;98.10;;;;;;2077830;28;20033;-67
2024/02/16 01:31:45;;;;;;;2.47;1.40;;;14.40;98.40;;;;;;2076105;28;20061;-66
2024/02/16 01:32:46;;;;;;;3.15;1.67;;;14.40;97.90;;;;;;2076419;28;20045;-66
2024/02/16 01:33:47;;;;;;;3.92;1.45;;;14.40;97.90;;;;;;2075893;28;20021;-67
2024/02/16 01:34:49;;;;;;;3.00;1.25;;;14.50;97.90;;;;;;2077025;28;20034;-66
2024/02/16 01:35:50;;;;;;;3.95;1.48;;;14.50;97.90;;;;;;2076452;28;20251;-66
2024/02/16 01:36:50;;;;;;;1.20;1.10;;;14.50;97.90;;;;;;2078532;28;20076;-66
2024/02/16 01:37:51;;;;;;;2.42;1.50;;;14.50;97.90;;;;;;2077485;28;20115;-66
2024/02/16 01:38:51;;;;;;;2.85;1.42;;;14.50;98.00;;;;;;2077378;28;20038;-66
2024/02/16 01:39:52;;;;;;;3.53;1.40;;;14.50;97.90;;;;;;2076587;28;20058;-67
2024/02/16 01:40:53;;;;;;;3.28;1.90;;;14.50;97.90;;;;;;2076710;28;20380;-67
2024/02/16 01:41:53;;;;;;;2.33;1.40;;;14.50;97.90;;;;;;2076612;28;20025;-67
2024/02/16 01:42:54;;;;;;;2.47;1.42;;;14.40;97.80;;;;;;2077477;28;20052;-66
2024/02/16 01:43:55;;;;;;;1.90;1.35;;;14.50;97.80;;;;;;2077166;28;20398;-66
2024/02/16 01:44:55;;;;;;;2.60;1.35;;;14.50;97.80;;;;;;2075768;28;20537;-66
2024/02/16 01:45:58;;;;;;;1.33;1.10;;;14.50;97.90;;;;;;2075923;28;20064;-67
2024/02/16 01:46:59;;;;;;;1.88;1.20;;;14.50;97.90;;;;;;2077691;28;20056;-65
2024/02/16 01:48:00;;;;;;;2.88;1.40;;;14.50;98.00;;;;;;2077601;28;20030;-66
2024/02/16 01:49:01;;;;;;;2.50;1.38;;;14.50;98.10;;;;;;2076268;28;20459;-66
2024/02/16 01:50:02;;;;;;;4.22;1.45;;;14.50;98.00;;;;;;2077106;28;20034;-67
2024/02/16 01:51:04;;;;;;;2.10;1.17;;;14.50;97.90;;;;;;2076351;28;20541;-66
2024/02/16 01:52:05;;;;;;;3.30;1.50;;;14.50;97.90;;;;;;2076027;28;20422;-67
2024/02/16 01:53:05;;;;;;;2.70;1.25;;;14.50;97.90;;;;;;2077633;28;20034;-66
2024/02/16 01:54:07;;;;;;;3.03;1.42;;;14.50;98.00;;;;;;2078022;28;20063;-67
2024/02/16 01:55:10;;;;;;;2.13;1.35;;;14.50;98.00;;;;;;2077656;28;20036;-65
2024/02/16 01:56:11;;;;;;;4.68;1.15;;;14.50;98.00;;;;;;2077917;28;20025;-66
2024/02/16 01:57:12;;;;;;;3.85;1.38;;;14.50;97.90;;;;;;2075594;28;20022;-66
2024/02/16 01:58:13;;;;;;;2.50;1.50;;;14.50;97.90;;;;;;2076836;28;20038;-67
2024/02/16 01:59:14;;;;;;;3.72;1.83;;;14.50;97.90;;;;;;2069659;28;20498;-67
2024/02/16 02:00:17;;;;;;;3.25;1.30;;;14.50;97.90;;;;;;2069357;28;20464;-66
2024/02/16 02:01:18;;;;;;;2.92;1.38;;;14.50;97.80;;;;;;2068770;28;20034;-67
2024/02/16 02:02:18;;;;;;;4.28;1.77;;;14.50;97.80;;;;;;2076085;28;20026;-66
2024/02/16 02:03:19;;;;;;;2.58;1.30;;;14.50;97.90;;;;;;2076960;28;20100;-66
2024/02/16 02:04:20;;;;;;;2.88;1.50;;;14.50;98.10;;;;;;2076968;28;20030;-66
2024/02/16 02:05:20;;;;;;;6.47;1.80;;;14.50;98.20;;;;;;2074230;28;20026;-66
2024/02/16 02:06:21;;;;;;;1.55;1.40;;;14.50;98.10;;;;;;2076423;28;20370;-66
2024/02/16 02:07:28;;;;;;;2.53;1.10;;;14.50;98.10;;;;;;2076665;28;20479;-67
2024/02/16 02:08:29;;;;;;;3.05;1.27;;;14.50;98.10;;;;;;2075895;28;20042;-66
2024/02/16 02:09:29;;;;;;;3.47;1.50;;;14.50;98.00;;;;;;2075818;28;20075;-66
2024/02/16 02:10:30;;;;;;;2.17;1.45;;;14.50;97.90;;;;;;2075352;28;20041;-67
2024/02/16 02:11:30;;;;;;;4.30;1.63;;;14.50;98.00;;;;;;2069737;28;20122;-66
2024/02/16 02:12:31;;;;;;;3.75;1.33;;;14.50;98.00;;;;;;2068276;28;20026;-66
2024/02/16 02:13:31;;;;;;;3.90;1.33;;;14.50;98.00;;;;;;2077433;28;20076;-66
2024/02/16 02:14:32;;;;;;;1.90;1.25;;;14.50;98.00;;;;;;2076505;28;20113;-66
2024/02/16 02:15:32;;;;;;;3.00;1.20;;;14.50;98.10;;;;;;2076727;28;20048;-66
2024/02/16 02:16:33;;;;;;;4.05;1.75;;;14.50;98.00;;;;;;2077674;28;20049;-67
2024/02/16 02:17:34;;;;;;;2.25;1.23;;;14.50;98.00;;;;;;2076535;28;20105;-67
2024/02/16 02:18:34;;;;;;;1.73;1.30;;;14.50;98.10;;;;;;2074461;28;20100;-66
2024/02/16 02:19:35;;;;;;;2.63;1.33;;;14.50;98.10;;;;;;2077234;28;20056;-66
2024/02/16 02:20:36;;;;;;;2.95;1.50;;;14.50;98.00;;;;;;2077521;28;20033;-67
2024/02/16 02:21:36;;;;;;;4.68;1.50;;;14.50;98.10;;;;;;2078273;28;20030;-66
2024/02/16 02:22:38;;;;;;;1.70;1.38;;;14.50;98.10;;;;;;2078095;28;20037;-66
2024/02/16 02:23:38;;;;;;;2.40;1.58;;;14.50;98.10;;;;;;2076861;28;20487;-66
2024/02/16 02:24:38;;;;;;;2.30;1.38;;;14.50;98.00;;;;;;2080213;28;20370;-67
2024/02/16 02:25:40;;;;;;;2.22;1.60;;;14.40;97.90;;;;;;2079546;28;20034;-65
2024/02/16 02:26:41;;;;;;;2.08;1.67;;;14.40;98.00;;;;;;2078714;28;20025;-66
2024/02/16 02:27:42;;;;;;;2.30;1.30;;;14.50;98.00;;;;;;2078250;28;20036;-67
2024/02/16 02:28:43;;;;;;;1.80;1.23;;;14.50;97.90;;;;;;2073792;28;20052;-66
2024/02/16 02:29:44;;;;;;;2.42;1.50;;;14.50;97.90;;;;;;2077089;28;20030;-66
2024/02/16 02:30:45;;;;;;;1.88;1.40;;;14.50;97.90;;;;;;2076532;28;20033;-66
2024/02/16 02:31:46;;;;;;;1.98;1.00;;;14.50;97.80;;;;;;2077058;28;21083;-68
2024/02/16 02:32:47;;;;;;;2.80;1.30;;;14.50;97.70;;;;;;2076725;28;20033;-67
2024/02/16 02:33:47;;;;;;;3.70;1.50;;;14.40;97.70;;;;;;2078046;28;20526;-66
2024/02/16 02:34:48;;;;;;;2.53;1.42;;;14.50;97.80;;;;;;2077554;28;20044;-66
2024/02/16 02:35:48;;;;;;;5.47;1.35;;;14.50;97.80;;;;;;2076168;28;20100;-66
2024/02/16 02:36:49;;;;;;;2.67;1.40;;;14.50;97.80;;;;;;2079515;28;20462;-68
2024/02/16 02:37:49;;;;;;;2.10;1.50;;;14.50;97.80;;;;;;2077649;28;20062;-66
2024/02/16 02:38:50;;;;;;;4.30;1.63;;;14.50;97.70;;;;;;2075569;28;20048;-66
2024/02/16 02:39:50;;;;;;;2.90;1.30;;;14.50;97.70;;;;;;2075314;28;20041;-66
2024/02/16 02:40:51;;;;;;;3.03;1.38;;;14.50;97.70;;;;;;2075742;28;20033;-66
2024/02/16 02:41:51;;;;;;;2.40;1.20;;;14.50;97.70;;;;;;2076335;28;20029;-67
2024/02/16 02:42:52;;;;;;;2.28;1.17;;;14.50;97.80;;;;;;2077446;28;20030;-66
2024/02/16 02:43:53;;;;;;;2.42;1.58;;;14.50;97.90;;;;;;2075136;28;20092;-66
2024/02/16 02:44:53;;;;;;;2.78;1.20;;;14.50;97.80;;;;;;2076347;28;20040;-67
2024/02/16 02:45:54;;;;;;;2.65;1.20;;;14.40;97.80;;;;;;2077166;28;20094;-66
2024/02/16 02:46:54;;;;;;;1.88;1.23;;;14.50;97.80;;;;;;2078456;28;20119;-66
2024/02/16 02:47:55;;;;;;;2.53;1.25;;;14.50;97.80;;;;;;2077752;28;20513;-66
2024/02/16 02:48:55;;;;;;;3.70;1.58;;;14.50;97.80;;;;;;2075164;28;20063;-65
2024/02/16 02:49:56;;;;;;;3.13;1.42;;;14.50;97.70;;;;;;2075529;28;20034;-66
2024/02/16 02:50:57;;;;;;;2.67;1.35;;;14.50;97.70;;;;;;2076988;28;20116;-66
2024/02/16 02:51:58;;;;;;;2.40;1.30;;;14.50;97.80;;;;;;2076947;28;20261;-67
2024/02/16 02:52:59;;;;;;;4.03;1.60;;;14.50;97.90;;;;;;2077497;28;20097;-67
2024/02/16 02:53:59;;;;;;;5.85;1.65;;;14.50;97.90;;;;;;2075997;28;20481;-66
2024/02/16 02:55:00;;;;;;;1.45;1.05;;;14.50;97.70;;;;;;2077052;28;20532;-67
2024/02/16 02:56:01;;;;;;;2.38;1.30;;;14.50;97.80;;;;;;2074984;28;20418;-66
2024/02/16 02:57:02;;;;;;;3.75;1.20;;;14.50;97.80;;;;;;2077230;28;20022;-67
2024/02/16 02:58:03;;;;;;;1.85;1.60;;;14.50;97.80;;;;;;2076537;28;20030;-66
2024/02/16 02:59:05;;;;;;;3.20;1.55;;;14.50;97.80;;;;;;2075806;28;20467;-66
2024/02/16 03:00:12;;;;;;;3.53;1.70;;;14.50;97.90;;;;;;2075553;28;20052;-66
2024/02/16 03:01:13;;;;;;;2.03;1.33;;;14.50;97.80;;;;;;2077000;28;20091;-66
2024/02/16 03:02:14;;;;;;;2.53;1.27;;;14.50;97.90;;;;;;2075011;28;20087;-67
2024/02/16 03:03:15;;;;;;;2.25;1.67;;;14.50;98.00;;;;;;2077817;28;20076;-67
2024/02/16 03:04:15;;;;;;;2.05;1.30;;;14.50;98.00;;;;;;2076793;28;20091;-67
2024/02/16 03:05:16;;;;;;;1.15;1.05;;;14.50;98.00;;;;;;2076228;28;20021;-65
2024/02/16 03:06:20;;;;;;;2.50;1.30;;;14.50;98.10;;;;;;2075175;28;20021;-67
2024/02/16 03:07:21;;;;;;;2.30;1.45;;;14.50;98.00;;;;;;2075737;28;20034;-66
2024/02/16 03:08:21;;;;;;;4.30;1.30;;;14.50;98.00;;;;;;2077532;28;20036;-66
2024/02/16 03:09:22;;;;;;;3.50;1.38;;;14.50;98.00;;;;;;2075675;28;20029;-66
2024/02/16 03:10:23;;;;;;;2.75;1.35;;;14.50;98.10;;;;;;2078123;28;20874;-66
2024/02/16 03:11:24;;;;;;;5.72;1.52;;;14.40;98.00;;;;;;2074591;28;20026;-66
2024/02/16 03:12:25;;;;;;;2.38;1.42;;;14.50;98.00;;;;;;2076820;28;20105;-66
2024/02/16 03:13:25;;;;;;;2.28;1.50;;;14.50;98.10;;;;;;2075136;28;20022;-66
2024/02/16 03:14:26;;;;;;;2.22;1.17;;;14.50;98.10;;;;;;2076747;28;20136;-66
2024/02/16 03:15:26;;;;;;;1.80;1.38;;;14.50;98.10;;;;;;2078031;28;20363;-66
2024/02/16 03:16:27;;;;;;;3.10;1.48;;;14.50;98.00;;;;;;2076448;28;20057;-66
2024/02/16 03:17:27;;;;;;;1.83;1.48;;;14.50;98.10;;;;;;2077063;28;20466;-67
2024/02/16 03:18:31;;;;;;;3.80;1.30;;;14.50;98.10;;;;;;2074582;28;20440;-66
2024/02/16 03:19:32;;;;;;;3.65;1.20;;;14.50;98.10;;;;;;2077037;28;20920;-67
2024/02/16 03:20:32;;;;;;;1.48;1.20;;;14.50;98.10;;;;;;2077440;28;20405;-67
2024/02/16 03:21:33;;;;;;;2.85;1.30;;;14.40;98.10;;;;;;2076190;28;20117;-66
2024/02/16 03:22:33;;;;;;;2.40;1.38;;;14.40;98.10;;;;;;2076016;28;20103;-66
2024/02/16 03:23:34;;;;;;;2.30;1.30;;;14.50;98.20;;;;;;2076300;28;20034;-66
2024/02/16 03:24:35;;;;;;;2.85;1.35;;;14.50;98.10;;;;;;2075660;28;20386;-66
2024/02/16 03:25:35;;;;;;;3.33;1.45;;;14.50;98.10;;;;;;2076988;28;20082;-66
2024/02/16 03:26:36;;;;;;;3.10;1.70;;;14.40;98.10;;;;;;2075915;28;20029;-67
2024/02/16 03:27:37;;;;;;;3.15;1.50;;;14.40;98.20;;;;;;2074686;28;20029;-66
2024/02/16 03:28:37;;;;;;;3.72;1.83;;;14.40;98.10;;;;;;2076568;28;20582;-66
2024/02/16 03:29:38;;;;;;;2.45;1.35;;;14.40;98.00;;;;;;2075661;28;20052;-65
2024/02/16 03:30:39;;;;;;;2.20;1.38;;;14.40;98.00;;;;;;2077083;28;20025;-67
2024/02/16 03:31:40;;;;;;;2.58;1.48;;;14.40;97.90;;;;;;2077995;28;20481;-66
2024/02/16 03:32:40;;;;;;;5.28;1.67;;;14.40;98.00;;;;;;2075831;28;20446;-67
2024/02/16 03:33:41;;;;;;;1.40;1.30;;;14.40;98.00;;;;;;2077486;28;20026;-66
2024/02/16 03:34:41;;;;;;;5.63;1.75;;;14.40;98.00;;;;;;2077644;28;20021;-66
2024/02/16 03:35:42;;;;;;;1.88;1.42;;;14.40;98.40;;;;;;2076985;28;20083;-67
2024/02/16 03:36:43;;;;;;;4.13;1.77;;;14.40;98.10;;;;;;2078433;28;20021;-67
2024/02/16 03:37:43;;;;;;;3.10;1.20;;;14.40;98.20;;;;;;2076177;28;20029;-66
2024/02/16 03:38:45;;;;;;;2.33;1.55;;;14.40;98.20;;;;;;2074584;28;20079;-67
2024/02/16 03:39:45;;;;;;;2.25;1.20;;;14.40;98.20;;;;;;2076632;28;20147;-66
2024/02/16 03:40:46;;;;;;;5.35;1.60;;;14.40;98.20;;;;;;2077025;28;20033;-66
2024/02/16 03:41:49;;;;;;;2.83;1.55;;;14.40;98.20;;;;;;2077459;28;20048;-66
2024/02/16 03:42:50;;;;;;;1.88;1.30;;;14.40;98.20;;;;;;2077228;28;20025;-66
2024/02/16 03:43:51;;;;;;;3.15;1.13;;;14.40;98.20;;;;;;2077069;28;20033;-66
2024/02/16 03:44:52;;;;;;;1.58;1.00;;;14.40;98.20;;;;;;2076730;28;20037;-67
2024/02/16 03:45:52;;;;;;;1.52;1.23;;;14.40;98.20;;;;;;2074684;28;20033;-71
2024/02/16 03:46:53;;;;;;;3.20;1.38;;;14.40;98.20;;;;;;2077392;28;20029;-71
2024/02/16 03:47:53;;;;;;;3.42;1.58;;;14.40;98.20;;;;;;2077679;28;20038;-71
2024/02/16 03:48:54;;;;;;;5.30;1.60;;;14.40;98.10;;;;;;2076664;28;20067;-71
2024/02/16 03:49:55;;;;;;;2.30;1.35;;;14.40;98.10;;;;;;2074703;28;20060;-71
2024/02/16 03:50:55;;;;;;;2.35;1.25;;;14.40;98.20;;;;;;2075020;28;20038;-71
2024/02/16 03:51:56;;;;;;;3.30;1.52;;;14.40;98.10;;;;;;2075181;28;20109;-71
2024/02/16 03:52:56;;;;;;;3.85;1.63;;;14.40;98.10;;;;;;2077006;28;20036;-71
2024/02/16 03:53:57;;;;;;;2.70;1.27;;;14.40;98.00;;;;;;2073942;28;20041;-71
2024/02/16 03:54:57;;;;;;;6.07;1.63;;;14.40;98.10;;;;;;2077094;28;20529;-72
2024/02/16 03:55:58;;;;;;;2.00;1.42;;;14.40;98.10;;;;;;2076268;28;20025;-72
2024/02/16 03:56:59;;;;;;;2.05;1.30;;;14.40;98.20;;;;;;2076227;28;20037;-70
2024/02/16 03:57:59;;;;;;;3.15;1.25;;;14.40;98.20;;;;;;2074396;28;20795;-71
2024/02/16 03:58:59;;;;;;;2.55;1.60;;;14.40;98.20;;;;;;2075230;28;20049;-71
2024/02/16 04:00:00;;;;;;;1.70;1.48;;;14.40;98.20;;;;;;2074463;28;20045;-70
2024/02/16 04:01:00;;;;;;;1.45;1.00;;;14.40;98.20;;;;;;2075632;28;20037;-71
2024/02/16 04:02:01;;;;;;;4.35;1.58;;;14.40;98.30;;;;;;2070503;28;20029;-71
2024/02/16 04:03:02;;;;;;;4.18;1.20;;;14.40;98.30;;;;;;2068531;28;20430;-71
2024/02/16 04:04:03;;;;;;;4.30;1.50;;;14.40;98.30;;;;;;2075530;28;20037;-71
2024/02/16 04:05:04;;;;;;;2.63;1.30;;;14.40;98.30;;;;;;2076025;28;20943;-71
2024/02/16 04:06:04;;;;;;;3.83;1.42;;;14.40;98.40;;;;;;2075054;28;20029;-71
2024/02/16 04:07:08;;;;;;;3.00;1.60;;;14.40;98.30;;;;;;2076743;28;20033;-70
2024/02/16 04:08:09;;;;;;;2.33;1.23;;;14.40;98.40;;;;;;2075687;28;20060;-70
2024/02/16 04:09:10;;;;;;;2.25;1.13;;;14.40;98.50;;;;;;2078199;28;20101;-71
2024/02/16 04:10:10;;;;;;;2.70;1.50;;;14.40;98.50;;;;;;2076130;28;20040;-71
2024/02/16 04:11:13;;;;;;;3.60;1.42;;;14.40;98.50;;;;;;2077095;28;20031;-70
2024/02/16 04:12:14;;;;;;;3.97;1.67;;;14.40;98.50;;;;;;2077358;28;20475;-70
2024/02/16 04:13:14;;;;;;;2.42;1.38;;;14.40;98.50;;;;;;2075883;28;20101;-70
2024/02/16 04:14:15;;;;;;;2.92;1.40;;;14.40;98.50;;;;;;2074749;28;20010;-71
2024/02/16 04:15:16;;;;;;;4.05;1.63;;;14.30;98.50;;;;;;2076983;28;20080;-71
2024/02/16 04:16:16;;;;;;;2.20;1.50;;;14.40;98.50;;;;;;2077017;28;20049;-71
2024/02/16 04:17:17;;;;;;;3.03;1.90;;;14.40;98.60;;;;;;2074266;28;20029;-71
2024/02/16 04:18:18;;;;;;;3.20;1.52;;;14.30;98.60;;;;;;2075885;28;20026;-71
2024/02/16 04:19:19;;;;;;;4.63;1.55;;;14.40;98.60;;;;;;2077818;28;20029;-71
2024/02/16 04:20:20;;;;;;;2.10;1.50;;;14.40;98.60;;;;;;2075754;28;20064;-71
2024/02/16 04:21:21;;;;;;;7.10;1.88;;;14.30;98.60;;;;;;2075488;28;20026;-71
2024/02/16 04:22:21;;;;;;;4.13;1.80;;;14.40;98.70;;;;;;2078327;28;20025;-71
2024/02/16 04:23:22;;;;;;;3.20;1.25;;;14.40;98.60;;;;;;2076077;28;20477;-71
2024/02/16 04:24:22;;;;;;;2.17;1.48;;;14.40;98.70;;;;;;2075405;28;20021;-71
2024/02/16 04:25:23;;;;;;;3.30;1.35;;;14.30;98.70;;;;;;2069560;28;20022;-70
2024/02/16 04:26:24;;;;;;;2.30;1.42;;;14.30;98.70;;;;;;2063457;28;20018;-71
2024/02/16 04:27:25;;;;;;;2.00;1.20;;;14.30;98.60;;;;;;2068032;28;20676;-71
2024/02/16 04:28:25;;;;;;;2.28;1.30;;;14.30;98.60;;;;;;2074995;28;20022;-71
2024/02/16 04:29:26;;;;;;;2.42;1.45;;;14.40;98.60;;;;;;2074462;28;20033;-71
2024/02/16 04:30:26;;;;;;;3.20;1.35;;;14.30;98.60;;;;;;2075447;28;20509;-71
2024/02/16 04:31:27;;;;;;;1.75;1.38;;;14.40;98.70;;;;;;2075305;28;20531;-71
2024/02/16 04:32:27;;;;;;;1.77;1.38;;;14.40;98.70;;;;;;2075416;28;20056;-70
2024/02/16 04:33:28;;;;;;;3.08;1.50;;;14.40;98.70;;;;;;2075550;28;20034;-71
2024/02/16 04:34:28;;;;;;;3.33;1.23;;;14.40;98.70;;;;;;2077004;28;20494;-70
2024/02/16 04:35:29;;;;;;;2.67;1.60;;;14.40;98.80;;;;;;2076635;28;20072;-71
2024/02/16 04:36:29;;;;;;;3.17;1.60;;;14.40;98.80;;;;;;2075136;28;20517;-71
2024/02/16 04:37:30;;;;;;;2.83;1.50;;;14.40;98.90;;;;;;2068006;28;20140;-70
2024/02/16 04:38:30;;;;;;;3.53;1.33;;;14.40;98.90;;;;;;2066128;28;20169;-71
2024/02/16 04:39:31;;;;;;;2.35;1.50;;;14.40;99.00;;;;;;2075762;28;20025;-71
2024/02/16 04:40:36;;;;;;;2.65;1.52;;;14.40;98.90;;;;;;2072983;28;20079;-71
2024/02/16 04:41:38;;;;;;;4.30;1.38;;;14.40;98.90;;;;;;2074865;28;20103;-71
2024/02/16 04:42:40;;;;;;;2.60;1.65;;;14.40;99.00;;;;;;2074821;28;20045;-70
2024/02/16 04:43:40;;;;;;;2.30;1.38;;;14.40;99.00;;;;;;2076910;28;20472;-71
2024/02/16 04:44:41;;;;;;;2.60;1.52;;;14.40;98.80;;;;;;2075408;28;20385;-71
2024/02/16 04:45:42;;;;;;;1.50;1.25;;;14.40;98.80;;;;;;2075558;28;20658;-71
2024/02/16 04:46:42;;;;;;;2.13;1.48;;;14.40;98.90;;;;;;2077219;28;20025;-71
2024/02/16 04:47:43;;;;;;;7.82;1.70;;;14.40;98.80;;;;;;2074290;28;20021;-70
2024/02/16 04:48:44;;;;;;;4.05;1.48;;;14.40;98.90;;;;;;2075603;28;20108;-71
2024/02/16 04:49:44;;;;;;;2.90;1.63;;;14.40;98.90;;;;;;2075567;28;20053;-71
2024/02/16 04:50:45;;;;;;;1.58;1.30;;;14.40;98.90;;;;;;2075152;28;20041;-71
2024/02/16 04:51:47;;;;;;;3.42;1.42;;;14.40;98.90;;;;;;2076205;28;20014;-71
2024/02/16 04:52:47;;;;;;;2.65;1.40;;;14.40;99.00;;;;;;2074186;28;20034;-71
2024/02/16 04:53:48;;;;;;;1.77;1.52;;;14.40;99.10;;;;;;2075648;28;20138;-71
2024/02/16 04:54:48;;;;;;;2.92;1.27;;;14.40;99.00;;;;;;2076569;28;20386;-71
2024/02/16 04:55:49;;;;;;;2.05;1.50;;;14.40;99.10;;;;;;2068723;28;20034;-66
2024/02/16 04:56:50;;;;;;;3.63;1.45;;;14.40;99.10;;;;;;2066565;28;20522;-66
2024/02/16 04:57:51;;;;;;;1.83;1.38;;;14.40;99.20;;;;;;2074947;28;20032;-66
2024/02/16 04:58:51;;;;;;;2.25;1.23;;;14.40;99.20;;;;;;2076928;28;20028;-66
2024/02/16 04:59:52;;;;;;;2.20;1.45;;;14.40;99.20;;;;;;2073261;28;20026;-67
2024/02/16 05:00:52;;;;;;;3.92;1.50;;;14.40;99.50;;;;;;2075120;28;20116;-67
2024/02/16 05:01:53;;;;;;;3.35;1.40;;;14.40;99.30;;;;;;2075492;28;20033;-66
2024/02/16 05:02:53;;;;;;;2.90;1.40;;;14.40;99.40;;;;;;2074687;28;20042;-66
2024/02/16 05:03:54;;;;;;;3.83;1.67;;;14.40;99.40;;;;;;2076814;28;20510;-67
2024/02/16 05:04:54;;;;;;;1.85;1.48;;;14.40;99.40;;;;;;2075733;28;20032;-66
2024/02/16 05:05:55;;;;;;;5.22;1.83;;;14.40;99.40;;;;;;2076056;28;20037;-66
2024/02/16 05:06:57;;;;;;;2.75;1.50;;;14.40;99.40;;;;;;2075432;28;20041;-67
2024/02/16 05:07:57;;;;;;;3.85;1.40;;;14.40;99.30;;;;;;2076279;28;20033;-67
2024/02/16 05:08:58;;;;;;;2.38;1.25;;;14.40;99.40;;;;;;2077849;28;20110;-67
2024/02/16 05:09:59;;;;;;;3.10;1.40;;;14.40;99.40;;;;;;2074795;28;20029;-67
2024/02/16 05:11:01;;;;;;;4.00;1.55;;;14.40;99.40;;;;;;2076056;28;20040;-66
2024/02/16 05:12:02;;;;;;;3.92;1.60;;;14.40;99.40;;;;;;2076235;28;20030;-66
2024/02/16 05:13:03;;;;;;;1.83;1.30;;;14.40;99.40;;;;;;2076574;28;20453;-66
2024/02/16 05:14:04;;;;;;;2.35;1.50;;;14.40;99.50;;;;;;2074462;28;20022;-67
2024/02/16 05:15:05;;;;;;;2.80;1.63;;;14.40;99.50;;;;;;2075175;28;20025;-67
2024/02/16 05:16:09;;;;;;;2.53;1.98;;;14.40;99.50;;;;;;2074163;28;20136;-66
2024/02/16 05:17:10;;;;;;;1.90;1.65;;;14.40;99.50;;;;;;2075599;28;20045;-66